sensor_id;sensor_type;location;lat;lon;timestamp;P1;durP1;ratioP1;P2;durP2;ratioP2
5465;SDS011;2755;50.728;7.108;2023-08-07T00:00:21;172.20;;;124.70;;
5465;SDS011;2755;50.728;7.108;2023-08-07T00:02:47;175.23;;;129.57;;
5465;SDS011;2755;50.728;7.108;2023-08-07T00:05:13;174.33;;;129.93;;
5465;SDS011;2755;50.728;7.108;2023-08-07T00:07:38;178.77;;;135.43;;
5465;SDS011;2755;50.728;7.108;2023-08-07T00:10:04;178.97;;;134.83;;
5465;SDS011;2755;50.728;7.108;2023-08-07T00:12:30;180.40;;;136.57;;
5465;SDS011;2755;50.728;7.108;2023-08-07T00:14:56;180.77;;;139.07;;
5465;SDS011;2755;50.728;7.108;2023-08-07T00:17:22;180.90;;;137.47;;
5465;SDS011;2755;50.728;7.108;2023-08-07T00:19:47;178.00;;;132.63;;
5465;SDS011;2755;50.728;7.108;2023-08-07T00:22:13;180.10;;;135.17;;
5465;SDS011;2755;50.728;7.108;2023-08-07T00:24:38;178.97;;;133.47;;
5465;SDS011;2755;50.728;7.108;2023-08-07T00:27:04;179.23;;;130.83;;
5465;SDS011;2755;50.728;7.108;2023-08-07T00:29:29;178.97;;;129.77;;
5465;SDS011;2755;50.728;7.108;2023-08-07T00:31:55;177.73;;;131.27;;
5465;SDS011;2755;50.728;7.108;2023-08-07T00:34:20;177.07;;;127.90;;
5465;SDS011;2755;50.728;7.108;2023-08-07T00:36:46;176.37;;;127.87;;
5465;SDS011;2755;50.728;7.108;2023-08-07T00:39:12;180.13;;;132.67;;
5465;SDS011;2755;50.728;7.108;2023-08-07T00:41:37;182.57;;;137.57;;
5465;SDS011;2755;50.728;7.108;2023-08-07T00:44:03;181.87;;;137.70;;
5465;SDS011;2755;50.728;7.108;2023-08-07T00:46:28;186.27;;;142.23;;
5465;SDS011;2755;50.728;7.108;2023-08-07T00:48:55;188.17;;;144.33;;
5465;SDS011;2755;50.728;7.108;2023-08-07T00:51:22;189.93;;;146.47;;
5465;SDS011;2755;50.728;7.108;2023-08-07T00:53:48;190.33;;;151.27;;
5465;SDS011;2755;50.728;7.108;2023-08-07T00:56:14;189.37;;;151.50;;
5465;SDS011;2755;50.728;7.108;2023-08-07T00:58:40;190.77;;;148.57;;
5465;SDS011;2755;50.728;7.108;2023-08-07T01:01:06;190.57;;;150.93;;
5465;SDS011;2755;50.728;7.108;2023-08-07T01:03:32;191.43;;;153.27;;
5465;SDS011;2755;50.728;7.108;2023-08-07T01:05:58;191.27;;;150.57;;
5465;SDS011;2755;50.728;7.108;2023-08-07T01:08:24;192.77;;;144.97;;
5465;SDS011;2755;50.728;7.108;2023-08-07T01:16:50;188.13;;;145.13;;
5465;SDS011;2755;50.728;7.108;2023-08-07T01:19:26;192.47;;;153.63;;
5465;SDS011;2755;50.728;7.108;2023-08-07T01:22:06;192.87;;;151.80;;
5465;SDS011;2755;50.728;7.108;2023-08-07T01:24:40;187.43;;;146.17;;
5465;SDS011;2755;50.728;7.108;2023-08-07T01:29:42;188.17;;;146.27;;
5465;SDS011;2755;50.728;7.108;2023-08-07T01:32:15;185.83;;;146.67;;
5465;SDS011;2755;50.728;7.108;2023-08-07T01:34:46;190.27;;;150.07;;
5465;SDS011;2755;50.728;7.108;2023-08-07T01:37:13;189.67;;;148.50;;
5465;SDS011;2755;50.728;7.108;2023-08-07T01:39:39;188.30;;;150.87;;
5465;SDS011;2755;50.728;7.108;2023-08-07T01:42:06;186.47;;;147.13;;
5465;SDS011;2755;50.728;7.108;2023-08-07T01:44:32;187.30;;;146.40;;
5465;SDS011;2755;50.728;7.108;2023-08-07T01:46:57;188.77;;;152.40;;
5465;SDS011;2755;50.728;7.108;2023-08-07T01:49:23;187.70;;;149.67;;
5465;SDS011;2755;50.728;7.108;2023-08-07T01:51:49;190.40;;;154.57;;
5465;SDS011;2755;50.728;7.108;2023-08-07T01:54:14;187.07;;;146.53;;
5465;SDS011;2755;50.728;7.108;2023-08-07T01:56:40;188.70;;;151.70;;
5465;SDS011;2755;50.728;7.108;2023-08-07T01:59:05;182.90;;;144.83;;
5465;SDS011;2755;50.728;7.108;2023-08-07T02:01:31;183.47;;;145.17;;
5465;SDS011;2755;50.728;7.108;2023-08-07T02:03:56;183.07;;;144.93;;
5465;SDS011;2755;50.728;7.108;2023-08-07T02:06:22;182.43;;;140.97;;
5465;SDS011;2755;50.728;7.108;2023-08-07T02:08:48;187.33;;;150.93;;
5465;SDS011;2755;50.728;7.108;2023-08-07T02:11:14;186.37;;;149.77;;
5465;SDS011;2755;50.728;7.108;2023-08-07T02:13:39;187.97;;;149.80;;
5465;SDS011;2755;50.728;7.108;2023-08-07T02:16:05;182.23;;;143.90;;
5465;SDS011;2755;50.728;7.108;2023-08-07T02:18:31;180.83;;;140.90;;
5465;SDS011;2755;50.728;7.108;2023-08-07T02:20:56;180.43;;;140.60;;
5465;SDS011;2755;50.728;7.108;2023-08-07T02:23:22;183.30;;;147.40;;
5465;SDS011;2755;50.728;7.108;2023-08-07T02:25:48;187.77;;;144.40;;
5465;SDS011;2755;50.728;7.108;2023-08-07T02:28:13;184.50;;;144.90;;
5465;SDS011;2755;50.728;7.108;2023-08-07T02:30:39;183.27;;;143.67;;
5465;SDS011;2755;50.728;7.108;2023-08-07T02:33:05;184.67;;;145.70;;
5465;SDS011;2755;50.728;7.108;2023-08-07T02:35:30;184.33;;;147.53;;
5465;SDS011;2755;50.728;7.108;2023-08-07T02:37:56;183.53;;;143.43;;
5465;SDS011;2755;50.728;7.108;2023-08-07T02:40:22;184.20;;;146.50;;
5465;SDS011;2755;50.728;7.108;2023-08-07T02:42:47;183.07;;;144.77;;
5465;SDS011;2755;50.728;7.108;2023-08-07T02:45:13;184.97;;;149.33;;
5465;SDS011;2755;50.728;7.108;2023-08-07T02:47:38;185.23;;;145.63;;
5465;SDS011;2755;50.728;7.108;2023-08-07T02:50:04;181.53;;;142.97;;
5465;SDS011;2755;50.728;7.108;2023-08-07T02:52:30;189.33;;;154.13;;
5465;SDS011;2755;50.728;7.108;2023-08-07T02:54:56;181.53;;;143.07;;
5465;SDS011;2755;50.728;7.108;2023-08-07T02:57:21;183.03;;;142.60;;
5465;SDS011;2755;50.728;7.108;2023-08-07T02:59:47;182.50;;;142.40;;
5465;SDS011;2755;50.728;7.108;2023-08-07T03:02:13;180.57;;;143.47;;
5465;SDS011;2755;50.728;7.108;2023-08-07T03:04:39;184.13;;;148.33;;
5465;SDS011;2755;50.728;7.108;2023-08-07T03:07:04;185.07;;;147.63;;
5465;SDS011;2755;50.728;7.108;2023-08-07T03:09:30;182.87;;;144.47;;
5465;SDS011;2755;50.728;7.108;2023-08-07T03:11:56;181.37;;;140.60;;
5465;SDS011;2755;50.728;7.108;2023-08-07T03:14:27;174.63;;;130.77;;
5465;SDS011;2755;50.728;7.108;2023-08-07T03:16:53;177.87;;;135.73;;
5465;SDS011;2755;50.728;7.108;2023-08-07T03:19:18;177.07;;;134.30;;
5465;SDS011;2755;50.728;7.108;2023-08-07T03:21:46;174.90;;;130.07;;
5465;SDS011;2755;50.728;7.108;2023-08-07T03:24:12;179.30;;;131.17;;
5465;SDS011;2755;50.728;7.108;2023-08-07T03:26:37;171.83;;;119.57;;
5465;SDS011;2755;50.728;7.108;2023-08-07T03:29:03;169.83;;;121.83;;
5465;SDS011;2755;50.728;7.108;2023-08-07T03:31:28;172.73;;;126.63;;
5465;SDS011;2755;50.728;7.108;2023-08-07T03:33:54;172.53;;;124.57;;
5465;SDS011;2755;50.728;7.108;2023-08-07T03:36:19;171.73;;;122.50;;
5465;SDS011;2755;50.728;7.108;2023-08-07T03:38:46;173.77;;;127.50;;
5465;SDS011;2755;50.728;7.108;2023-08-07T03:41:12;171.47;;;122.93;;
5465;SDS011;2755;50.728;7.108;2023-08-07T03:43:37;177.67;;;131.47;;
5465;SDS011;2755;50.728;7.108;2023-08-07T03:46:03;176.27;;;127.47;;
5465;SDS011;2755;50.728;7.108;2023-08-07T03:48:29;167.53;;;115.27;;
5465;SDS011;2755;50.728;7.108;2023-08-07T03:51:05;173.33;;;128.50;;
5465;SDS011;2755;50.728;7.108;2023-08-07T03:53:33;172.07;;;126.37;;
5465;SDS011;2755;50.728;7.108;2023-08-07T03:55:59;175.97;;;132.10;;
5465;SDS011;2755;50.728;7.108;2023-08-07T03:58:24;175.33;;;130.00;;
5465;SDS011;2755;50.728;7.108;2023-08-07T04:00:51;176.37;;;132.23;;
5465;SDS011;2755;50.728;7.108;2023-08-07T04:03:17;174.00;;;129.30;;
5465;SDS011;2755;50.728;7.108;2023-08-07T04:05:43;173.47;;;131.03;;
5465;SDS011;2755;50.728;7.108;2023-08-07T04:08:09;175.77;;;128.37;;
5465;SDS011;2755;50.728;7.108;2023-08-07T04:10:34;171.60;;;124.33;;
5465;SDS011;2755;50.728;7.108;2023-08-07T04:13:00;170.07;;;122.93;;
5465;SDS011;2755;50.728;7.108;2023-08-07T04:15:25;166.70;;;112.40;;
5465;SDS011;2755;50.728;7.108;2023-08-07T04:17:51;167.37;;;115.13;;
5465;SDS011;2755;50.728;7.108;2023-08-07T04:20:17;166.63;;;116.80;;
5465;SDS011;2755;50.728;7.108;2023-08-07T04:22:42;167.70;;;117.77;;
5465;SDS011;2755;50.728;7.108;2023-08-07T04:25:09;166.73;;;116.97;;
5465;SDS011;2755;50.728;7.108;2023-08-07T04:27:35;163.90;;;112.50;;
5465;SDS011;2755;50.728;7.108;2023-08-07T04:30:01;161.87;;;110.47;;
5465;SDS011;2755;50.728;7.108;2023-08-07T04:32:26;159.90;;;107.30;;
5465;SDS011;2755;50.728;7.108;2023-08-07T04:34:52;158.77;;;102.73;;
5465;SDS011;2755;50.728;7.108;2023-08-07T04:37:17;159.57;;;102.10;;
5465;SDS011;2755;50.728;7.108;2023-08-07T04:39:43;161.60;;;106.63;;
5465;SDS011;2755;50.728;7.108;2023-08-07T04:42:09;161.73;;;108.07;;
5465;SDS011;2755;50.728;7.108;2023-08-07T04:44:35;160.30;;;104.30;;
5465;SDS011;2755;50.728;7.108;2023-08-07T04:47:01;163.97;;;110.90;;
5465;SDS011;2755;50.728;7.108;2023-08-07T04:49:26;162.53;;;109.97;;
5465;SDS011;2755;50.728;7.108;2023-08-07T04:51:52;161.37;;;106.80;;
5465;SDS011;2755;50.728;7.108;2023-08-07T04:54:18;163.27;;;110.63;;
5465;SDS011;2755;50.728;7.108;2023-08-07T04:56:43;162.57;;;110.57;;
5465;SDS011;2755;50.728;7.108;2023-08-07T04:59:09;161.17;;;107.37;;
5465;SDS011;2755;50.728;7.108;2023-08-07T05:01:35;159.97;;;105.80;;
5465;SDS011;2755;50.728;7.108;2023-08-07T05:04:01;163.87;;;108.97;;
5465;SDS011;2755;50.728;7.108;2023-08-07T05:06:27;162.93;;;111.40;;
5465;SDS011;2755;50.728;7.108;2023-08-07T05:08:52;163.73;;;110.57;;
5465;SDS011;2755;50.728;7.108;2023-08-07T05:11:18;161.17;;;105.83;;
5465;SDS011;2755;50.728;7.108;2023-08-07T05:13:45;167.50;;;115.93;;
5465;SDS011;2755;50.728;7.108;2023-08-07T05:16:11;165.53;;;107.60;;
5465;SDS011;2755;50.728;7.108;2023-08-07T05:18:36;158.97;;;102.83;;
5465;SDS011;2755;50.728;7.108;2023-08-07T05:21:02;166.47;;;115.27;;
5465;SDS011;2755;50.728;7.108;2023-08-07T05:23:27;159.87;;;106.20;;
5465;SDS011;2755;50.728;7.108;2023-08-07T05:25:53;163.80;;;111.10;;
5465;SDS011;2755;50.728;7.108;2023-08-07T05:28:19;165.47;;;115.73;;
5465;SDS011;2755;50.728;7.108;2023-08-07T05:30:44;172.67;;;128.10;;
5465;SDS011;2755;50.728;7.108;2023-08-07T05:33:10;177.97;;;130.73;;
5465;SDS011;2755;50.728;7.108;2023-08-07T05:35:37;177.70;;;134.27;;
5465;SDS011;2755;50.728;7.108;2023-08-07T05:38:03;182.17;;;135.90;;
5465;SDS011;2755;50.728;7.108;2023-08-07T05:40:29;180.37;;;137.30;;
5465;SDS011;2755;50.728;7.108;2023-08-07T05:42:55;179.07;;;134.17;;
5465;SDS011;2755;50.728;7.108;2023-08-07T05:45:21;186.27;;;141.73;;
5465;SDS011;2755;50.728;7.108;2023-08-07T05:47:46;195.13;;;154.93;;
5465;SDS011;2755;50.728;7.108;2023-08-07T05:50:12;201.57;;;170.83;;
5465;SDS011;2755;50.728;7.108;2023-08-07T05:52:38;199.23;;;164.83;;
5465;SDS011;2755;50.728;7.108;2023-08-07T05:55:04;200.13;;;170.43;;
5465;SDS011;2755;50.728;7.108;2023-08-07T05:57:30;199.63;;;170.80;;
5465;SDS011;2755;50.728;7.108;2023-08-07T05:59:56;205.23;;;167.43;;
5465;SDS011;2755;50.728;7.108;2023-08-07T06:02:21;198.40;;;173.03;;
5465;SDS011;2755;50.728;7.108;2023-08-07T06:04:47;191.93;;;163.20;;
5465;SDS011;2755;50.728;7.108;2023-08-07T06:07:13;198.17;;;176.17;;
5465;SDS011;2755;50.728;7.108;2023-08-07T06:09:39;193.73;;;154.30;;
5465;SDS011;2755;50.728;7.108;2023-08-07T06:12:05;202.50;;;180.10;;
5465;SDS011;2755;50.728;7.108;2023-08-07T06:14:31;197.97;;;170.43;;
5465;SDS011;2755;50.728;7.108;2023-08-07T06:16:57;196.93;;;168.13;;
5465;SDS011;2755;50.728;7.108;2023-08-07T06:19:26;195.33;;;160.93;;
5465;SDS011;2755;50.728;7.108;2023-08-07T06:21:52;201.97;;;175.43;;
5465;SDS011;2755;50.728;7.108;2023-08-07T06:24:19;198.20;;;167.40;;
5465;SDS011;2755;50.728;7.108;2023-08-07T06:26:45;194.33;;;159.90;;
5465;SDS011;2755;50.728;7.108;2023-08-07T06:29:10;196.17;;;163.37;;
5465;SDS011;2755;50.728;7.108;2023-08-07T06:31:36;193.50;;;158.20;;
5465;SDS011;2755;50.728;7.108;2023-08-07T06:34:01;196.60;;;166.10;;
5465;SDS011;2755;50.728;7.108;2023-08-07T06:36:28;196.30;;;164.03;;
5465;SDS011;2755;50.728;7.108;2023-08-07T06:38:53;190.57;;;151.90;;
5465;SDS011;2755;50.728;7.108;2023-08-07T06:41:19;192.57;;;153.90;;
5465;SDS011;2755;50.728;7.108;2023-08-07T06:43:45;188.77;;;147.23;;
5465;SDS011;2755;50.728;7.108;2023-08-07T06:46:11;188.73;;;148.33;;
5465;SDS011;2755;50.728;7.108;2023-08-07T06:48:36;185.40;;;144.60;;
5465;SDS011;2755;50.728;7.108;2023-08-07T06:51:02;184.17;;;146.17;;
5465;SDS011;2755;50.728;7.108;2023-08-07T06:53:28;175.00;;;130.50;;
5465;SDS011;2755;50.728;7.108;2023-08-07T06:55:53;172.00;;;127.87;;
5465;SDS011;2755;50.728;7.108;2023-08-07T06:58:19;176.40;;;135.77;;
5465;SDS011;2755;50.728;7.108;2023-08-07T07:00:45;175.17;;;133.77;;
5465;SDS011;2755;50.728;7.108;2023-08-07T07:03:11;178.60;;;135.60;;
5465;SDS011;2755;50.728;7.108;2023-08-07T07:05:37;172.40;;;126.90;;
5465;SDS011;2755;50.728;7.108;2023-08-07T07:08:02;179.73;;;137.73;;
5465;SDS011;2755;50.728;7.108;2023-08-07T07:10:28;182.97;;;139.40;;
5465;SDS011;2755;50.728;7.108;2023-08-07T07:12:54;175.27;;;128.23;;
5465;SDS011;2755;50.728;7.108;2023-08-07T07:15:20;179.67;;;136.47;;
5465;SDS011;2755;50.728;7.108;2023-08-07T07:17:46;180.03;;;136.93;;
5465;SDS011;2755;50.728;7.108;2023-08-07T07:20:11;183.17;;;144.67;;
5465;SDS011;2755;50.728;7.108;2023-08-07T07:22:37;180.50;;;140.60;;
5465;SDS011;2755;50.728;7.108;2023-08-07T07:25:03;180.10;;;139.70;;
5465;SDS011;2755;50.728;7.108;2023-08-07T07:27:29;177.57;;;134.77;;
5465;SDS011;2755;50.728;7.108;2023-08-07T07:29:55;170.73;;;122.23;;
5465;SDS011;2755;50.728;7.108;2023-08-07T07:32:20;166.43;;;113.53;;
5465;SDS011;2755;50.728;7.108;2023-08-07T07:34:46;168.27;;;118.97;;
5465;SDS011;2755;50.728;7.108;2023-08-07T07:37:12;164.57;;;112.00;;
5465;SDS011;2755;50.728;7.108;2023-08-07T07:39:39;167.20;;;117.67;;
5465;SDS011;2755;50.728;7.108;2023-08-07T07:42:05;167.17;;;116.37;;
5465;SDS011;2755;50.728;7.108;2023-08-07T07:44:31;159.57;;;104.63;;
5465;SDS011;2755;50.728;7.108;2023-08-07T07:46:58;167.17;;;114.37;;
5465;SDS011;2755;50.728;7.108;2023-08-07T07:49:24;162.90;;;112.50;;
5465;SDS011;2755;50.728;7.108;2023-08-07T07:51:50;167.40;;;118.37;;
5465;SDS011;2755;50.728;7.108;2023-08-07T07:54:16;167.67;;;116.27;;
5465;SDS011;2755;50.728;7.108;2023-08-07T07:56:42;167.13;;;118.33;;
5465;SDS011;2755;50.728;7.108;2023-08-07T07:59:08;172.87;;;125.40;;
5465;SDS011;2755;50.728;7.108;2023-08-07T08:01:33;167.37;;;116.10;;
5465;SDS011;2755;50.728;7.108;2023-08-07T08:03:59;172.20;;;123.97;;
5465;SDS011;2755;50.728;7.108;2023-08-07T08:06:25;173.07;;;126.13;;
5465;SDS011;2755;50.728;7.108;2023-08-07T08:08:51;169.80;;;118.90;;
5465;SDS011;2755;50.728;7.108;2023-08-07T08:11:17;172.10;;;122.30;;
5465;SDS011;2755;50.728;7.108;2023-08-07T08:13:42;175.13;;;130.57;;
5465;SDS011;2755;50.728;7.108;2023-08-07T08:16:08;177.67;;;134.77;;
5465;SDS011;2755;50.728;7.108;2023-08-07T08:18:34;177.00;;;135.30;;
5465;SDS011;2755;50.728;7.108;2023-08-07T08:21:00;174.87;;;130.70;;
5465;SDS011;2755;50.728;7.108;2023-08-07T08:23:28;176.23;;;133.97;;
5465;SDS011;2755;50.728;7.108;2023-08-07T08:25:53;173.20;;;129.20;;
5465;SDS011;2755;50.728;7.108;2023-08-07T08:28:19;173.37;;;128.03;;
5465;SDS011;2755;50.728;7.108;2023-08-07T08:30:45;173.83;;;129.80;;
5465;SDS011;2755;50.728;7.108;2023-08-07T08:33:10;175.80;;;133.07;;
5465;SDS011;2755;50.728;7.108;2023-08-07T08:35:39;179.03;;;138.80;;
5465;SDS011;2755;50.728;7.108;2023-08-07T08:38:05;182.40;;;142.40;;
5465;SDS011;2755;50.728;7.108;2023-08-07T08:40:31;181.37;;;137.93;;
5465;SDS011;2755;50.728;7.108;2023-08-07T08:42:59;175.00;;;131.83;;
5465;SDS011;2755;50.728;7.108;2023-08-07T08:45:26;182.27;;;142.47;;
5465;SDS011;2755;50.728;7.108;2023-08-07T08:47:54;184.07;;;144.53;;
5465;SDS011;2755;50.728;7.108;2023-08-07T08:50:25;181.67;;;140.97;;
5465;SDS011;2755;50.728;7.108;2023-08-07T08:52:51;185.10;;;146.80;;
5465;SDS011;2755;50.728;7.108;2023-08-07T08:55:20;186.60;;;149.47;;
5465;SDS011;2755;50.728;7.108;2023-08-07T08:57:46;188.87;;;152.47;;
5465;SDS011;2755;50.728;7.108;2023-08-07T09:00:12;191.20;;;153.17;;
5465;SDS011;2755;50.728;7.108;2023-08-07T09:02:48;185.43;;;142.40;;
5465;SDS011;2755;50.728;7.108;2023-08-07T09:05:14;188.20;;;146.30;;
5465;SDS011;2755;50.728;7.108;2023-08-07T09:07:41;189.20;;;146.77;;
5465;SDS011;2755;50.728;7.108;2023-08-07T09:10:08;187.40;;;143.27;;
5465;SDS011;2755;50.728;7.108;2023-08-07T09:12:36;189.77;;;149.03;;
5465;SDS011;2755;50.728;7.108;2023-08-07T09:15:06;194.87;;;155.27;;
5465;SDS011;2755;50.728;7.108;2023-08-07T09:17:35;191.87;;;150.67;;
5465;SDS011;2755;50.728;7.108;2023-08-07T09:20:05;190.40;;;149.87;;
5465;SDS011;2755;50.728;7.108;2023-08-07T09:22:35;189.60;;;148.13;;
5465;SDS011;2755;50.728;7.108;2023-08-07T09:25:01;193.40;;;155.60;;
5465;SDS011;2755;50.728;7.108;2023-08-07T09:27:27;192.20;;;153.67;;
5465;SDS011;2755;50.728;7.108;2023-08-07T09:29:54;203.87;;;173.73;;
5465;SDS011;2755;50.728;7.108;2023-08-07T09:32:20;205.37;;;174.10;;
5465;SDS011;2755;50.728;7.108;2023-08-07T09:34:48;208.20;;;180.13;;
5465;SDS011;2755;50.728;7.108;2023-08-07T09:37:14;194.53;;;155.47;;
5465;SDS011;2755;50.728;7.108;2023-08-07T09:39:40;203.23;;;171.60;;
5465;SDS011;2755;50.728;7.108;2023-08-07T09:42:15;218.33;;;193.77;;
5465;SDS011;2755;50.728;7.108;2023-08-07T09:44:41;208.37;;;183.00;;
5465;SDS011;2755;50.728;7.108;2023-08-07T09:47:11;192.57;;;152.13;;
5465;SDS011;2755;50.728;7.108;2023-08-07T09:49:42;188.07;;;146.60;;
5465;SDS011;2755;50.728;7.108;2023-08-07T09:52:08;182.53;;;139.57;;
5465;SDS011;2755;50.728;7.108;2023-08-07T09:54:36;181.67;;;137.93;;
5465;SDS011;2755;50.728;7.108;2023-08-07T09:57:02;179.10;;;132.57;;
5465;SDS011;2755;50.728;7.108;2023-08-07T09:59:28;177.57;;;131.37;;
5465;SDS011;2755;50.728;7.108;2023-08-07T10:01:54;177.07;;;128.53;;
5465;SDS011;2755;50.728;7.108;2023-08-07T10:04:22;177.60;;;132.73;;
5465;SDS011;2755;50.728;7.108;2023-08-07T10:06:48;174.10;;;126.00;;
5465;SDS011;2755;50.728;7.108;2023-08-07T10:09:14;171.77;;;121.70;;
5465;SDS011;2755;50.728;7.108;2023-08-07T10:11:41;170.43;;;122.27;;
5465;SDS011;2755;50.728;7.108;2023-08-07T10:14:08;174.13;;;123.30;;
5465;SDS011;2755;50.728;7.108;2023-08-07T10:16:34;169.83;;;115.87;;
5465;SDS011;2755;50.728;7.108;2023-08-07T10:19:04;166.87;;;113.27;;
5465;SDS011;2755;50.728;7.108;2023-08-07T10:21:30;174.00;;;121.73;;
5465;SDS011;2755;50.728;7.108;2023-08-07T10:24:01;169.40;;;112.77;;
5465;SDS011;2755;50.728;7.108;2023-08-07T10:26:29;160.17;;;102.07;;
5465;SDS011;2755;50.728;7.108;2023-08-07T10:28:58;159.27;;;98.20;;
5465;SDS011;2755;50.728;7.108;2023-08-07T10:31:26;162.77;;;103.07;;
5465;SDS011;2755;50.728;7.108;2023-08-07T10:33:53;164.63;;;106.43;;
5465;SDS011;2755;50.728;7.108;2023-08-07T10:36:19;171.03;;;117.27;;
5465;SDS011;2755;50.728;7.108;2023-08-07T10:38:48;178.27;;;130.40;;
5465;SDS011;2755;50.728;7.108;2023-08-07T10:41:15;182.90;;;137.87;;
5465;SDS011;2755;50.728;7.108;2023-08-07T10:43:44;186.20;;;146.00;;
5465;SDS011;2755;50.728;7.108;2023-08-07T10:46:19;186.47;;;144.23;;
5465;SDS011;2755;50.728;7.108;2023-08-07T10:48:46;186.77;;;144.23;;
5465;SDS011;2755;50.728;7.108;2023-08-07T10:51:18;199.13;;;165.60;;
5465;SDS011;2755;50.728;7.108;2023-08-07T10:53:47;204.00;;;176.43;;
5465;SDS011;2755;50.728;7.108;2023-08-07T10:56:28;197.63;;;164.63;;
5465;SDS011;2755;50.728;7.108;2023-08-07T10:59:07;203.43;;;178.50;;
5465;SDS011;2755;50.728;7.108;2023-08-07T11:01:39;205.97;;;179.90;;
5465;SDS011;2755;50.728;7.108;2023-08-07T11:04:07;195.07;;;158.53;;
5465;SDS011;2755;50.728;7.108;2023-08-07T11:06:37;178.73;;;132.77;;
5465;SDS011;2755;50.728;7.108;2023-08-07T11:09:05;183.53;;;142.17;;
5465;SDS011;2755;50.728;7.108;2023-08-07T11:11:36;179.77;;;132.83;;
5465;SDS011;2755;50.728;7.108;2023-08-07T11:14:07;197.50;;;165.00;;
5465;SDS011;2755;50.728;7.108;2023-08-07T11:16:34;191.13;;;150.67;;
5465;SDS011;2755;50.728;7.108;2023-08-07T11:18:59;196.00;;;152.10;;
5465;SDS011;2755;50.728;7.108;2023-08-07T11:21:25;180.97;;;131.37;;
5465;SDS011;2755;50.728;7.108;2023-08-07T11:23:51;183.90;;;130.77;;
5465;SDS011;2755;50.728;7.108;2023-08-07T11:26:16;181.73;;;132.67;;
5465;SDS011;2755;50.728;7.108;2023-08-07T11:28:42;180.57;;;134.23;;
5465;SDS011;2755;50.728;7.108;2023-08-07T11:31:08;182.97;;;138.20;;
5465;SDS011;2755;50.728;7.108;2023-08-07T11:33:35;183.37;;;135.03;;
5465;SDS011;2755;50.728;7.108;2023-08-07T11:36:01;184.77;;;141.50;;
5465;SDS011;2755;50.728;7.108;2023-08-07T11:41:03;191.47;;;149.07;;
5465;SDS011;2755;50.728;7.108;2023-08-07T11:43:30;180.27;;;130.20;;
5465;SDS011;2755;50.728;7.108;2023-08-07T11:45:57;181.83;;;132.20;;
5465;SDS011;2755;50.728;7.108;2023-08-07T11:48:25;185.93;;;138.10;;
5465;SDS011;2755;50.728;7.108;2023-08-07T11:50:55;186.27;;;140.80;;
5465;SDS011;2755;50.728;7.108;2023-08-07T11:53:22;190.03;;;145.80;;
5465;SDS011;2755;50.728;7.108;2023-08-07T11:58:22;195.57;;;156.07;;
5465;SDS011;2755;50.728;7.108;2023-08-07T12:00:50;193.23;;;155.93;;
5465;SDS011;2755;50.728;7.108;2023-08-07T12:03:25;201.87;;;169.53;;
5465;SDS011;2755;50.728;7.108;2023-08-07T12:05:53;193.63;;;153.17;;
5465;SDS011;2755;50.728;7.108;2023-08-07T12:08:20;206.97;;;174.10;;
5465;SDS011;2755;50.728;7.108;2023-08-07T12:10:48;207.70;;;175.77;;
5465;SDS011;2755;50.728;7.108;2023-08-07T12:13:26;199.57;;;156.57;;
5465;SDS011;2755;50.728;7.108;2023-08-07T12:15:55;198.97;;;158.67;;
5465;SDS011;2755;50.728;7.108;2023-08-07T12:18:22;203.77;;;169.00;;
5465;SDS011;2755;50.728;7.108;2023-08-07T12:20:49;205.00;;;167.67;;
5465;SDS011;2755;50.728;7.108;2023-08-07T12:23:16;202.23;;;161.83;;
5465;SDS011;2755;50.728;7.108;2023-08-07T12:25:43;200.90;;;162.00;;
5465;SDS011;2755;50.728;7.108;2023-08-07T12:28:10;193.33;;;157.57;;
5465;SDS011;2755;50.728;7.108;2023-08-07T12:30:36;186.87;;;146.07;;
5465;SDS011;2755;50.728;7.108;2023-08-07T12:33:03;183.23;;;135.13;;
5465;SDS011;2755;50.728;7.108;2023-08-07T12:35:30;183.60;;;140.17;;
5465;SDS011;2755;50.728;7.108;2023-08-07T12:37:55;199.17;;;163.23;;
5465;SDS011;2755;50.728;7.108;2023-08-07T12:40:21;205.30;;;173.73;;
5465;SDS011;2755;50.728;7.108;2023-08-07T12:42:48;197.77;;;159.87;;
5465;SDS011;2755;50.728;7.108;2023-08-07T12:45:14;200.67;;;163.80;;
5465;SDS011;2755;50.728;7.108;2023-08-07T12:47:41;194.97;;;157.43;;
5465;SDS011;2755;50.728;7.108;2023-08-07T12:50:07;198.40;;;164.83;;
5465;SDS011;2755;50.728;7.108;2023-08-07T12:52:33;200.80;;;165.63;;
5465;SDS011;2755;50.728;7.108;2023-08-07T12:54:59;201.70;;;165.27;;
5465;SDS011;2755;50.728;7.108;2023-08-07T12:57:25;192.60;;;148.60;;
5465;SDS011;2755;50.728;7.108;2023-08-07T12:59:51;188.90;;;141.30;;
5465;SDS011;2755;50.728;7.108;2023-08-07T13:02:17;192.70;;;146.53;;
5465;SDS011;2755;50.728;7.108;2023-08-07T13:04:43;212.33;;;182.73;;
5465;SDS011;2755;50.728;7.108;2023-08-07T13:07:08;211.63;;;182.97;;
5465;SDS011;2755;50.728;7.108;2023-08-07T13:09:34;206.47;;;176.13;;
5465;SDS011;2755;50.728;7.108;2023-08-07T13:12:00;206.50;;;174.67;;
5465;SDS011;2755;50.728;7.108;2023-08-07T13:14:25;206.13;;;172.33;;
5465;SDS011;2755;50.728;7.108;2023-08-07T13:16:51;190.27;;;141.77;;
5465;SDS011;2755;50.728;7.108;2023-08-07T13:19:17;188.77;;;139.97;;
5465;SDS011;2755;50.728;7.108;2023-08-07T13:21:42;193.03;;;149.20;;
5465;SDS011;2755;50.728;7.108;2023-08-07T13:24:08;208.67;;;175.97;;
5465;SDS011;2755;50.728;7.108;2023-08-07T13:26:34;206.13;;;168.73;;
5465;SDS011;2755;50.728;7.108;2023-08-07T13:28:59;204.17;;;169.57;;
5465;SDS011;2755;50.728;7.108;2023-08-07T13:31:25;198.97;;;162.80;;
5465;SDS011;2755;50.728;7.108;2023-08-07T13:33:51;190.90;;;149.27;;
5465;SDS011;2755;50.728;7.108;2023-08-07T13:36:16;195.03;;;154.33;;
5465;SDS011;2755;50.728;7.108;2023-08-07T13:38:42;195.57;;;156.17;;
5465;SDS011;2755;50.728;7.108;2023-08-07T13:41:08;195.80;;;155.73;;
5465;SDS011;2755;50.728;7.108;2023-08-07T13:43:33;191.13;;;155.53;;
5465;SDS011;2755;50.728;7.108;2023-08-07T13:45:59;198.47;;;164.23;;
5465;SDS011;2755;50.728;7.108;2023-08-07T13:48:24;191.70;;;153.83;;
5465;SDS011;2755;50.728;7.108;2023-08-07T13:50:53;191.00;;;152.10;;
5465;SDS011;2755;50.728;7.108;2023-08-07T13:53:19;191.23;;;150.97;;
5465;SDS011;2755;50.728;7.108;2023-08-07T13:55:45;190.20;;;148.93;;
5465;SDS011;2755;50.728;7.108;2023-08-07T13:58:11;193.77;;;158.33;;
5465;SDS011;2755;50.728;7.108;2023-08-07T14:00:40;196.43;;;162.00;;
5465;SDS011;2755;50.728;7.108;2023-08-07T14:03:07;192.77;;;160.37;;
5465;SDS011;2755;50.728;7.108;2023-08-07T14:05:34;195.07;;;164.47;;
5465;SDS011;2755;50.728;7.108;2023-08-07T14:08:00;196.50;;;168.00;;
5465;SDS011;2755;50.728;7.108;2023-08-07T14:10:27;196.30;;;166.63;;
5465;SDS011;2755;50.728;7.108;2023-08-07T14:12:53;192.57;;;158.93;;
5465;SDS011;2755;50.728;7.108;2023-08-07T14:15:19;192.80;;;158.07;;
5465;SDS011;2755;50.728;7.108;2023-08-07T14:17:45;190.70;;;150.83;;
5465;SDS011;2755;50.728;7.108;2023-08-07T14:20:11;185.07;;;142.97;;
5465;SDS011;2755;50.728;7.108;2023-08-07T14:22:36;192.47;;;164.80;;
5465;SDS011;2755;50.728;7.108;2023-08-07T14:25:03;188.53;;;155.70;;
5465;SDS011;2755;50.728;7.108;2023-08-07T14:27:30;181.03;;;137.93;;
5465;SDS011;2755;50.728;7.108;2023-08-07T14:29:56;175.63;;;130.03;;